createdAt,value
2023-04-30T00:00:37.463Z,12.42
2023-04-30T00:03:05.497Z,12.62
2023-04-30T00:05:33.674Z,12.52
2023-04-30T00:08:01.767Z,12.36
2023-04-30T00:10:31.587Z,12.34
2023-04-30T00:13:01.280Z,12.57
2023-04-30T00:15:29.896Z,12.68
2023-04-30T00:17:57.582Z,12.98
2023-04-30T00:20:25.424Z,13.07
2023-04-30T00:22:53.441Z,12.86
2023-04-30T00:25:24.524Z,12.62
2023-04-30T00:27:52.370Z,12.46
2023-04-30T00:30:21.710Z,12.59
2023-04-30T00:32:49.727Z,12.81
2023-04-30T00:35:17.771Z,12.77
2023-04-30T00:37:45.803Z,13.12
2023-04-30T00:40:14.805Z,13.18
2023-04-30T00:42:42.616Z,13.25
2023-04-30T00:45:11.822Z,12.98
2023-04-30T00:47:41.263Z,12.95
2023-04-30T00:50:09.804Z,13.19
2023-04-30T00:52:37.654Z,13.52
2023-04-30T00:55:05.957Z,13.56
2023-04-30T00:57:35.590Z,13.63
2023-04-30T01:00:03.905Z,13.46
2023-04-30T01:02:32.700Z,13.45
2023-04-30T01:05:02.682Z,13.10
2023-04-30T01:07:31.302Z,13.18
2023-04-30T01:09:59.113Z,13.07
2023-04-30T01:12:30.455Z,13.09
2023-04-30T01:15:01.694Z,12.89
2023-04-30T01:17:33.783Z,13.07
2023-04-30T01:20:04.213Z,13.26
2023-04-30T01:22:42.007Z,13.28
2023-04-30T01:25:22.448Z,13.13
2023-04-30T01:28:05.487Z,12.92
2023-04-30T01:30:34.629Z,13.31
2023-04-30T01:33:03.065Z,13.41
2023-04-30T01:35:47.572Z,13.63
2023-04-30T01:38:23.662Z,13.60
2023-04-30T01:40:55.210Z,13.59
2023-04-30T01:43:29.873Z,13.61
2023-04-30T01:46:02.802Z,13.09
2023-04-30T01:48:36.366Z,13.11
2023-04-30T01:51:09.961Z,13.15
2023-04-30T01:53:41.657Z,13.16
2023-04-30T01:56:12.419Z,13.27
2023-04-30T01:58:41.973Z,13.28
2023-04-30T02:01:26.534Z,13.22
2023-04-30T02:03:54.796Z,13.11
2023-04-30T02:06:22.837Z,13.00
2023-04-30T02:08:50.722Z,12.82
2023-04-30T02:11:18.545Z,12.90
2023-04-30T02:13:47.799Z,12.59
2023-04-30T02:16:16.031Z,12.23
2023-04-30T02:18:43.679Z,12.06
2023-04-30T02:21:11.827Z,12.08
2023-04-30T02:23:39.667Z,12.24
2023-04-30T02:26:09.087Z,12.29
2023-04-30T02:28:37.478Z,12.41
2023-04-30T02:31:07.493Z,12.10
2023-04-30T02:33:35.813Z,11.88
2023-04-30T02:36:03.694Z,11.95
2023-04-30T02:38:31.417Z,11.74
2023-04-30T02:40:59.257Z,11.55
2023-04-30T02:43:27.359Z,11.65
2023-04-30T02:45:55.231Z,11.61
2023-04-30T02:48:24.696Z,11.57
2023-04-30T02:50:53.112Z,11.56
2023-04-30T02:53:21.343Z,11.57
2023-04-30T02:55:49.197Z,11.86
2023-04-30T02:58:17.354Z,11.79
2023-04-30T03:00:45.276Z,11.94
2023-04-30T03:03:16.497Z,12.09
2023-04-30T03:05:47.264Z,11.80
2023-04-30T03:08:16.871Z,11.45
2023-04-30T03:10:44.956Z,11.58
2023-04-30T03:13:13.131Z,11.48
2023-04-30T03:15:41.948Z,11.38
2023-04-30T03:18:10.138Z,11.36
2023-04-30T03:20:39.625Z,11.26
2023-04-30T03:23:09.190Z,11.16
2023-04-30T03:25:37.577Z,11.24
2023-04-30T03:28:06.854Z,11.27
2023-04-30T03:30:35.228Z,11.26
2023-04-30T03:33:03.690Z,11.18
2023-04-30T03:35:31.900Z,11.00
2023-04-30T03:38:00.087Z,10.99
2023-04-30T03:40:30.339Z,11.07
2023-04-30T03:42:59.013Z,10.94
2023-04-30T03:45:27.495Z,11.04
2023-04-30T03:47:56.500Z,11.08
2023-04-30T03:50:24.791Z,10.88
2023-04-30T03:52:53.054Z,11.01
2023-04-30T03:55:20.961Z,11.17
2023-04-30T03:57:50.657Z,11.23
2023-04-30T04:00:22.039Z,11.17
2023-04-30T04:02:53.735Z,11.33
2023-04-30T04:05:22.179Z,11.33
2023-04-30T04:07:50.240Z,11.15
2023-04-30T04:10:19.501Z,11.25
2023-04-30T04:12:48.656Z,11.22
2023-04-30T04:15:21.463Z,11.18
2023-04-30T04:17:49.907Z,11.28
2023-04-30T04:20:18.602Z,11.14
2023-04-30T04:22:46.954Z,11.12
2023-04-30T04:25:15.302Z,11.04
2023-04-30T04:27:45.405Z,10.94
2023-04-30T04:30:14.257Z,10.93
2023-04-30T04:32:50.188Z,10.85
2023-04-30T04:35:21.049Z,11.03
2023-04-30T04:37:49.526Z,11.07
2023-04-30T04:40:19.025Z,11.03
2023-04-30T04:42:47.663Z,10.89
2023-04-30T04:45:16.432Z,11.16
2023-04-30T04:47:47.002Z,11.31
2023-04-30T04:50:15.958Z,11.06
2023-04-30T04:52:43.873Z,10.97
2023-04-30T04:55:12.657Z,11.12
2023-04-30T04:57:42.171Z,11.05
2023-04-30T05:00:12.674Z,11.20
2023-04-30T05:02:40.836Z,11.27
2023-04-30T05:05:11.879Z,10.89
2023-04-30T05:07:40.226Z,10.98
2023-04-30T05:10:10.265Z,11.07
2023-04-30T05:12:39.317Z,11.37
2023-04-30T05:15:07.684Z,11.44
2023-04-30T05:17:36.205Z,11.27
2023-04-30T05:20:05.149Z,11.34
2023-04-30T05:22:34.953Z,11.43
2023-04-30T05:25:03.826Z,11.28
2023-04-30T05:27:32.365Z,11.43
2023-04-30T05:30:03.131Z,11.36
2023-04-30T05:32:31.614Z,11.33
2023-04-30T05:35:00.023Z,11.24
2023-04-30T05:37:29.211Z,11.17
2023-04-30T05:39:59.123Z,11.28
2023-04-30T05:42:27.731Z,11.60
2023-04-30T05:44:56.563Z,11.79
2023-04-30T05:47:25.142Z,11.16
2023-04-30T05:49:53.683Z,11.45
2023-04-30T05:52:22.280Z,11.48
2023-04-30T05:54:50.955Z,11.88
2023-04-30T05:57:22.795Z,11.81
2023-04-30T05:59:50.984Z,11.73
2023-04-30T06:02:19.855Z,11.69
2023-04-30T06:04:48.942Z,11.77
2023-04-30T06:07:17.838Z,11.66
2023-04-30T06:09:46.379Z,11.42
2023-04-30T06:12:15.019Z,11.27
2023-04-30T06:14:46.086Z,11.69
2023-04-30T06:17:15.168Z,11.95
2023-04-30T06:19:43.550Z,12.19
2023-04-30T06:22:12.390Z,12.31
2023-04-30T06:24:41.068Z,12.57
2023-04-30T06:27:10.224Z,12.84
2023-04-30T06:29:38.568Z,12.97
2023-04-30T06:32:08.818Z,13.76
2023-04-30T06:34:37.245Z,13.95
2023-04-30T06:37:05.533Z,15.17
2023-04-30T06:39:34.108Z,15.65
2023-04-30T06:42:02.425Z,14.70
2023-04-30T06:44:30.771Z,13.88
2023-04-30T06:46:59.677Z,13.36
2023-04-30T06:49:29.453Z,14.15
2023-04-30T06:51:58.581Z,14.66
2023-04-30T06:54:27.987Z,13.94
2023-04-30T06:56:55.816Z,14.18
2023-04-30T06:59:23.745Z,13.97
2023-04-30T07:01:51.717Z,14.89
2023-04-30T07:04:20.173Z,15.10
2023-04-30T07:06:51.039Z,15.73
2023-04-30T07:09:21.623Z,15.23
2023-04-30T07:11:50.429Z,15.20
2023-04-30T07:14:18.593Z,14.76
2023-04-30T07:16:46.462Z,16.07
2023-04-30T07:19:15.802Z,16.21
2023-04-30T07:21:46.174Z,16.28
2023-04-30T07:24:15.754Z,16.19
2023-04-30T07:26:44.089Z,16.09
2023-04-30T07:29:12.061Z,17.41
2023-04-30T07:31:39.928Z,18.36
2023-04-30T07:34:09.064Z,17.59
2023-04-30T07:36:38.489Z,16.78
2023-04-30T07:39:06.715Z,17.40
2023-04-30T07:41:36.559Z,16.44
2023-04-30T07:44:04.597Z,16.64
2023-04-30T07:46:32.584Z,16.52
2023-04-30T07:49:00.999Z,16.30
2023-04-30T07:51:29.461Z,16.85
2023-04-30T07:53:57.725Z,16.44
2023-04-30T07:56:25.932Z,15.98
2023-04-30T07:58:55.787Z,17.52
2023-04-30T08:01:24.065Z,18.03
2023-04-30T08:03:52.534Z,18.93
2023-04-30T08:06:20.659Z,19.33
2023-04-30T08:08:50.503Z,19.87
2023-04-30T08:11:19.042Z,20.63
2023-04-30T08:13:47.620Z,21.57
2023-04-30T08:16:17.377Z,19.51
2023-04-30T08:18:46.734Z,20.08
2023-04-30T08:21:14.846Z,19.80
2023-04-30T08:23:42.810Z,20.43
2023-04-30T08:26:10.613Z,20.78
2023-04-30T08:28:38.606Z,19.06
2023-04-30T08:31:06.625Z,17.56
2023-04-30T08:33:36.170Z,19.45
2023-04-30T08:36:04.113Z,20.44
2023-04-30T08:38:32.422Z,21.32
2023-04-30T08:41:06.640Z,21.00
2023-04-30T08:43:35.653Z,20.43
2023-04-30T08:46:04.270Z,20.07
2023-04-30T08:48:33.153Z,20.30
2023-04-30T08:51:03.314Z,20.58
2023-04-30T08:53:32.024Z,21.00
2023-04-30T08:56:00.648Z,21.16
2023-04-30T08:58:28.571Z,20.94
2023-04-30T09:00:59.246Z,20.30
2023-04-30T09:03:27.734Z,19.39
2023-04-30T09:05:57.158Z,18.65
2023-04-30T09:08:42.769Z,19.13
2023-04-30T09:11:28.383Z,19.79
2023-04-30T09:13:57.408Z,18.99
2023-04-30T09:16:26.694Z,19.23
2023-04-30T09:18:55.071Z,19.86
2023-04-30T09:21:33.062Z,19.85
2023-04-30T09:24:02.075Z,19.34
2023-04-30T09:26:34.180Z,17.87
2023-04-30T09:29:08.185Z,18.52
2023-04-30T09:31:37.118Z,18.00
2023-04-30T09:34:06.269Z,17.40
2023-04-30T09:36:34.748Z,18.43
2023-04-30T09:39:14.951Z,18.20
2023-04-30T09:41:44.981Z,19.62
2023-04-30T09:44:27.736Z,19.13
2023-04-30T09:46:56.809Z,19.37
2023-04-30T09:49:25.870Z,20.34
2023-04-30T09:51:57.677Z,19.68
2023-04-30T09:54:27.127Z,19.04
2023-04-30T09:56:58.201Z,19.13
2023-04-30T09:59:30.937Z,19.12
2023-04-30T10:02:00.196Z,19.19
2023-04-30T10:04:29.565Z,19.71
2023-04-30T10:06:59.590Z,19.09
2023-04-30T10:09:31.375Z,19.32
2023-04-30T10:12:02.379Z,19.63
2023-04-30T10:14:34.781Z,21.86
2023-04-30T10:17:07.184Z,20.96
2023-04-30T10:19:37.599Z,22.15
2023-04-30T10:22:06.770Z,21.51
2023-04-30T10:24:36.112Z,23.27
2023-04-30T10:27:06.166Z,25.31
2023-04-30T10:29:34.614Z,24.25
2023-04-30T10:32:05.819Z,23.38
2023-04-30T10:34:39.678Z,24.46
2023-04-30T10:37:09.320Z,23.86
2023-04-30T10:39:39.054Z,22.06
2023-04-30T10:42:11.729Z,25.01
2023-04-30T10:44:40.725Z,25.35
2023-04-30T10:47:09.527Z,22.85
2023-04-30T10:49:39.317Z,20.76
2023-04-30T10:52:07.285Z,23.21
2023-04-30T10:54:37.109Z,22.23
2023-04-30T10:57:14.431Z,23.52
2023-04-30T10:59:47.708Z,25.85
2023-04-30T11:02:18.064Z,27.35
2023-04-30T11:05:05.094Z,26.50
2023-04-30T11:07:32.934Z,26.60
2023-04-30T11:10:02.024Z,25.04
2023-04-30T11:12:31.374Z,24.49
2023-04-30T11:15:01.720Z,22.89
2023-04-30T11:17:29.924Z,21.19
2023-04-30T11:20:00.195Z,21.82
2023-04-30T11:22:30.182Z,20.87
2023-04-30T11:25:05.383Z,24.79
2023-04-30T11:27:35.677Z,24.21
2023-04-30T11:30:05.107Z,27.62
2023-04-30T11:32:34.002Z,30.11
2023-04-30T11:35:02.356Z,29.17
2023-04-30T11:37:32.108Z,25.79
2023-04-30T11:40:01.881Z,29.10
2023-04-30T11:42:31.394Z,35.31
2023-04-30T11:45:08.495Z,36.86
2023-04-30T11:47:40.183Z,37.65
2023-04-30T11:50:08.680Z,35.45
2023-04-30T11:52:36.946Z,29.83
2023-04-30T11:55:09.383Z,31.00
2023-04-30T11:57:41.901Z,29.67
2023-04-30T12:00:13.804Z,28.13
2023-04-30T12:02:42.117Z,29.14
2023-04-30T12:05:14.095Z,25.65
2023-04-30T12:07:46.443Z,27.48
2023-04-30T12:10:14.253Z,32.50
2023-04-30T12:12:43.287Z,31.89
2023-04-30T12:15:18.818Z,31.39
2023-04-30T12:17:47.128Z,33.26
2023-04-30T12:20:16.227Z,34.42
2023-04-30T12:22:44.989Z,32.15
2023-04-30T12:25:14.049Z,29.42
2023-04-30T12:27:42.579Z,31.30
2023-04-30T12:30:10.556Z,32.75
2023-04-30T12:32:41.383Z,31.64
2023-04-30T12:35:10.010Z,30.08
2023-04-30T12:37:37.699Z,34.02
2023-04-30T12:40:08.522Z,30.79
2023-04-30T12:42:37.125Z,31.35
2023-04-30T12:45:05.124Z,29.28
2023-04-30T12:47:33.227Z,29.37
2023-04-30T12:50:02.733Z,28.96
2023-04-30T12:52:30.434Z,28.97
2023-04-30T12:54:58.464Z,27.91
2023-04-30T12:57:26.328Z,26.06
2023-04-30T12:59:58.232Z,26.46
2023-04-30T13:02:27.791Z,27.91
2023-04-30T13:04:55.670Z,29.62
2023-04-30T13:07:24.962Z,32.02
2023-04-30T13:09:53.407Z,34.45
2023-04-30T13:12:24.523Z,32.79
2023-04-30T13:14:53.826Z,32.33
2023-04-30T13:17:22.600Z,35.64
2023-04-30T13:19:50.488Z,33.26
2023-04-30T13:22:18.406Z,32.25
2023-04-30T13:24:48.328Z,27.80
2023-04-30T13:27:16.594Z,24.80
2023-04-30T13:29:44.486Z,22.64
2023-04-30T13:32:12.819Z,23.28
2023-04-30T13:34:40.641Z,23.16
2023-04-30T13:37:08.990Z,27.20
2023-04-30T13:39:37.186Z,30.43
2023-04-30T13:42:06.362Z,27.79
2023-04-30T13:44:34.312Z,28.86
2023-04-30T13:47:02.564Z,26.77
2023-04-30T13:49:30.657Z,29.77
2023-04-30T13:51:58.798Z,34.03
2023-04-30T13:54:26.987Z,36.99
2023-04-30T13:56:55.606Z,35.72
2023-04-30T13:59:26.070Z,35.45
2023-04-30T14:01:53.951Z,30.99
2023-04-30T14:04:22.112Z,27.97
2023-04-30T14:06:50.504Z,26.92
2023-04-30T14:09:18.458Z,25.27
2023-04-30T14:11:46.469Z,23.48
2023-04-30T14:14:14.314Z,24.21
2023-04-30T14:16:44.801Z,26.02
2023-04-30T14:19:12.863Z,24.74
2023-04-30T14:21:40.747Z,24.79
2023-04-30T14:24:08.810Z,24.62
2023-04-30T14:26:37.241Z,23.15
2023-04-30T14:29:05.281Z,23.40
2023-04-30T14:31:33.253Z,23.48
2023-04-30T14:34:02.886Z,23.20
2023-04-30T14:36:32.657Z,23.45
2023-04-30T14:39:00.687Z,23.11
2023-04-30T14:41:28.951Z,23.20
2023-04-30T14:43:57.367Z,23.57
2023-04-30T14:46:25.344Z,24.40
2023-04-30T14:48:54.402Z,24.22
2023-04-30T14:51:24.023Z,24.56
2023-04-30T14:53:51.852Z,25.30
2023-04-30T14:56:20.596Z,27.25
2023-04-30T14:58:49.303Z,30.49
2023-04-30T15:01:18.307Z,32.54
2023-04-30T15:03:47.001Z,30.75
2023-04-30T15:06:15.306Z,26.41
2023-04-30T15:08:44.420Z,23.52
2023-04-30T15:11:13.305Z,22.00
2023-04-30T15:13:40.938Z,22.14
2023-04-30T15:16:08.796Z,22.29
2023-04-30T15:18:37.486Z,21.95
2023-04-30T15:21:05.377Z,22.14
2023-04-30T15:23:33.726Z,22.20
2023-04-30T15:26:03.172Z,23.20
2023-04-30T15:28:31.314Z,25.58
2023-04-30T15:30:59.280Z,24.42
2023-04-30T15:33:29.225Z,23.31
2023-04-30T15:35:57.367Z,22.65
2023-04-30T15:38:25.647Z,22.12
2023-04-30T15:40:53.355Z,21.88
2023-04-30T15:43:22.744Z,21.58
2023-04-30T15:45:50.446Z,21.38
2023-04-30T15:48:18.255Z,21.73
2023-04-30T15:50:45.950Z,22.33
2023-04-30T15:53:13.959Z,23.22
2023-04-30T15:55:41.766Z,24.09
2023-04-30T15:58:09.245Z,26.76
2023-04-30T16:00:38.888Z,28.95
2023-04-30T16:03:07.276Z,30.34
2023-04-30T16:05:38.805Z,28.64
2023-04-30T16:08:06.956Z,26.66
2023-04-30T16:10:34.589Z,26.38
2023-04-30T16:13:02.624Z,25.10
2023-04-30T16:15:30.869Z,23.91
2023-04-30T16:17:59.977Z,23.44
2023-04-30T16:20:28.811Z,23.56
2023-04-30T16:22:56.952Z,23.62
2023-04-30T16:25:24.848Z,23.24
2023-04-30T16:27:53.640Z,23.22
2023-04-30T16:30:21.974Z,23.55
2023-04-30T16:32:49.626Z,24.27
2023-04-30T16:35:20.045Z,23.34
2023-04-30T16:37:48.067Z,22.92
2023-04-30T16:40:16.159Z,22.54
2023-04-30T16:42:45.971Z,21.91
2023-04-30T16:45:14.310Z,21.10
2023-04-30T16:47:43.800Z,20.65
2023-04-30T16:50:11.916Z,20.57
2023-04-30T16:52:41.872Z,20.39
2023-04-30T16:55:10.479Z,20.56
2023-04-30T16:57:38.368Z,20.84
2023-04-30T17:00:09.049Z,20.79
2023-04-30T17:02:38.153Z,21.06
2023-04-30T17:05:10.625Z,21.42
2023-04-30T17:07:40.181Z,21.29
2023-04-30T17:10:11.105Z,21.17
2023-04-30T17:12:39.409Z,21.90
2023-04-30T17:15:08.241Z,21.76
2023-04-30T17:17:37.301Z,22.26
2023-04-30T17:20:06.816Z,23.09
2023-04-30T17:22:36.213Z,23.18
2023-04-30T17:25:04.660Z,22.69
2023-04-30T17:27:36.159Z,21.53
2023-04-30T17:30:04.495Z,20.94
2023-04-30T17:32:33.992Z,20.34
2023-04-30T17:35:03.277Z,20.75
2023-04-30T17:37:31.849Z,20.90
2023-04-30T17:40:00.541Z,20.89
2023-04-30T17:42:28.971Z,21.01
2023-04-30T17:44:58.864Z,20.63
2023-04-30T17:47:27.662Z,20.43
2023-04-30T17:49:56.488Z,19.89
2023-04-30T17:52:26.478Z,19.91
2023-04-30T17:54:54.984Z,19.74
2023-04-30T17:57:23.274Z,19.75
2023-04-30T17:59:51.640Z,19.53
2023-04-30T18:02:21.487Z,19.17
2023-04-30T18:04:50.833Z,18.92
2023-04-30T18:07:19.277Z,18.80
2023-04-30T18:09:47.980Z,18.49
2023-04-30T18:12:16.460Z,18.22
2023-04-30T18:14:44.435Z,18.03
2023-04-30T18:17:12.880Z,17.93
2023-04-30T18:19:44.791Z,17.79
2023-04-30T18:22:13.136Z,17.68
2023-04-30T18:24:41.682Z,17.61
2023-04-30T18:27:10.143Z,17.48
2023-04-30T18:29:38.364Z,17.43
2023-04-30T18:32:06.428Z,17.32
2023-04-30T18:34:35.161Z,17.18
2023-04-30T18:37:04.899Z,17.08
2023-04-30T18:39:33.175Z,17.02
2023-04-30T18:42:02.676Z,16.93
2023-04-30T18:44:32.224Z,16.83
2023-04-30T18:47:00.388Z,16.73
2023-04-30T18:49:29.387Z,16.61
2023-04-30T18:51:58.265Z,16.66
2023-04-30T18:54:28.078Z,16.71
2023-04-30T18:56:56.062Z,16.75
2023-04-30T18:59:24.273Z,16.74
2023-04-30T19:01:52.524Z,16.65
2023-04-30T19:04:20.702Z,16.61
2023-04-30T19:06:50.070Z,16.56
2023-04-30T19:09:18.145Z,16.63
2023-04-30T19:11:47.970Z,16.65
2023-04-30T19:14:16.482Z,16.45
2023-04-30T19:16:44.796Z,16.38
2023-04-30T19:19:13.191Z,16.29
2023-04-30T19:21:41.780Z,16.17
2023-04-30T19:24:10.225Z,15.92
2023-04-30T19:26:38.312Z,15.66
2023-04-30T19:29:07.997Z,15.56
2023-04-30T19:31:36.349Z,15.60
2023-04-30T19:34:04.684Z,15.60
2023-04-30T19:36:36.308Z,15.74
2023-04-30T19:39:07.552Z,15.77
2023-04-30T19:41:36.058Z,15.73
2023-04-30T19:44:04.272Z,15.72
2023-04-30T19:46:39.486Z,15.66
2023-04-30T19:49:08.205Z,15.69
2023-04-30T19:51:36.672Z,15.67
2023-04-30T19:54:04.859Z,15.53
2023-04-30T19:56:32.995Z,15.49
2023-04-30T19:59:00.767Z,15.55
2023-04-30T20:01:29.508Z,15.52
2023-04-30T20:04:00.249Z,15.53
2023-04-30T20:06:28.490Z,15.48
2023-04-30T20:08:58.900Z,15.33
2023-04-30T20:11:27.182Z,15.36
2023-04-30T20:13:55.596Z,15.34
2023-04-30T20:16:24.012Z,15.37
2023-04-30T20:18:52.454Z,15.25
2023-04-30T20:21:25.089Z,15.21
2023-04-30T20:23:54.292Z,15.09
2023-04-30T20:26:24.176Z,14.92
2023-04-30T20:28:52.493Z,14.92
2023-04-30T20:31:21.911Z,14.83
2023-04-30T20:33:50.137Z,14.77
2023-04-30T20:36:18.583Z,14.70
2023-04-30T20:38:48.290Z,14.64
2023-04-30T20:41:16.210Z,14.54
2023-04-30T20:43:44.300Z,14.48
2023-04-30T20:46:14.088Z,14.56
2023-04-30T20:48:42.374Z,14.59
2023-04-30T20:51:11.936Z,14.55
2023-04-30T20:53:40.548Z,14.71
2023-04-30T20:56:12.394Z,14.76
2023-04-30T20:58:40.979Z,14.68
2023-04-30T21:01:09.885Z,14.53
2023-04-30T21:03:38.685Z,14.46
2023-04-30T21:06:07.231Z,14.36
2023-04-30T21:08:35.428Z,14.35
2023-04-30T21:11:04.400Z,14.42
2023-04-30T21:13:34.542Z,14.45
2023-04-30T21:16:05.259Z,14.54
2023-04-30T21:18:34.830Z,14.50
2023-04-30T21:21:03.922Z,14.28
2023-04-30T21:23:32.958Z,14.40
2023-04-30T21:26:01.799Z,14.47
2023-04-30T21:28:30.738Z,14.36
2023-04-30T21:31:04.335Z,14.47
2023-04-30T21:33:34.295Z,14.48
2023-04-30T21:36:01.991Z,14.51
2023-04-30T21:38:30.258Z,14.41
2023-04-30T21:40:58.768Z,14.43
2023-04-30T21:43:27.617Z,14.43
2023-04-30T21:45:56.526Z,14.48
2023-04-30T21:48:26.975Z,14.60
2023-04-30T21:50:55.406Z,14.59
2023-04-30T21:53:23.897Z,14.54
2023-04-30T21:56:07.957Z,14.57
2023-04-30T21:58:39.697Z,14.66
2023-04-30T22:01:08.772Z,14.59
2023-04-30T22:03:40.385Z,14.60
2023-04-30T22:06:09.499Z,14.44
2023-04-30T22:08:37.449Z,14.38
2023-04-30T22:11:05.547Z,14.27
2023-04-30T22:13:34.799Z,14.13
2023-04-30T22:16:03.857Z,14.07
2023-04-30T22:18:32.761Z,13.95
2023-04-30T22:21:02.449Z,13.76
2023-04-30T22:23:30.972Z,13.75
2023-04-30T22:25:59.227Z,13.77
2023-04-30T22:28:27.920Z,13.79
2023-04-30T22:31:00.275Z,13.79
2023-04-30T22:33:28.549Z,13.83
2023-04-30T22:35:56.933Z,13.80
2023-04-30T22:38:29.486Z,13.82
2023-04-30T22:40:58.314Z,13.77
2023-04-30T22:43:27.184Z,13.69
2023-04-30T22:45:55.851Z,13.67
2023-04-30T22:48:23.889Z,13.61
2023-04-30T22:50:52.975Z,13.62
2023-04-30T22:53:21.209Z,13.63
2023-04-30T22:55:51.576Z,13.62
2023-04-30T22:58:19.879Z,13.57
2023-04-30T23:00:50.170Z,13.60
2023-04-30T23:03:18.940Z,13.58
2023-04-30T23:05:52.678Z,13.61
2023-04-30T23:08:21.093Z,13.66
2023-04-30T23:10:55.772Z,13.70
2023-04-30T23:13:25.539Z,13.72
2023-04-30T23:15:53.895Z,13.77
2023-04-30T23:18:24.760Z,13.87
2023-04-30T23:20:53.665Z,13.97
2023-04-30T23:23:21.619Z,14.02
2023-04-30T23:25:49.868Z,14.06
2023-04-30T23:28:20.008Z,14.10
2023-04-30T23:30:51.678Z,14.08
2023-04-30T23:33:21.755Z,14.14
2023-04-30T23:35:49.671Z,14.13
2023-04-30T23:38:17.923Z,14.17
2023-04-30T23:40:46.269Z,14.11
2023-04-30T23:43:14.431Z,14.01
2023-04-30T23:45:43.824Z,13.98
2023-04-30T23:48:12.115Z,13.89
2023-04-30T23:50:40.416Z,13.80
2023-04-30T23:53:10.308Z,13.67
2023-04-30T23:55:41.705Z,13.63
2023-04-30T23:58:10.069Z,13.53
